Time;durP1;ratioP1;P1;durP2;ratioP2;P2;SDS_P1;SDS_P2;PMS_P1;PMS_P2;Temp;Humidity;BMP_temperature;BMP_pressure;BME280_temperature;BME280_humidity;BME280_pressure;Samples;Min_cycle;Max_cycle;Signal;HPM_P1;HPM_P2
2020/12/22 00:01:17;;;;;;;15.50;9.13;;;;;;;-2.19;77.41;101193.94;130085;1093;21362;-59
2020/12/22 00:03:44;;;;;;;;;;;;;;;-2.16;77.45;101190.13;130253;1098;23276;-59
2020/12/22 00:06:11;;;;;;;13.53;7.97;;;;;;;-2.16;77.29;101198.14;130066;1092;21356;-59
2020/12/22 00:08:39;;;;;;;15.27;8.77;;;;;;;-2.17;77.30;101193.81;130251;1093;23233;-59
2020/12/22 00:11:06;;;;;;;13.70;9.00;;;;;;;-2.14;77.33;101185.50;130114;1093;23266;-59
2020/12/22 00:13:33;;;;;;;12.73;8.20;;;;;;;-2.12;77.03;101194.23;130220;1093;25308;-59
2020/12/22 00:16:00;;;;;;;;;;;;;;;-2.13;77.14;101192.53;130157;1098;23317;-59
2020/12/22 00:18:27;;;;;;;13.87;8.73;;;;;;;-2.14;76.84;101189.02;130217;1093;21987;-59
2020/12/22 00:20:54;;;;;;;;;;;;;;;-2.13;76.76;101192.53;130115;1093;23279;-59
2020/12/22 00:23:20;;;;;;;14.00;8.77;;;;;;;-2.11;76.83;101187.06;130286;1092;21407;-60
2020/12/22 00:25:48;;;;;;;15.03;9.50;;;;;;;-2.10;76.46;101184.27;130257;1093;23267;-59
2020/12/22 00:28:16;;;;;;;15.23;8.57;;;;;;;-2.12;76.79;101175.54;130105;1093;23250;-59
2020/12/22 00:30:43;;;;;;;15.47;9.57;;;;;;;-2.10;76.55;101175.41;130235;1091;23296;-59
2020/12/22 00:33:10;;;;;;;18.27;11.33;;;;;;;-2.11;76.73;101171.05;130111;1093;23218;-59
2020/12/22 00:35:37;;;;;;;58.13;22.10;;;;;;;-2.12;76.54;101172.87;130236;1093;24245;-59
2020/12/22 00:38:04;;;;;;;144.20;38.97;;;;;;;-2.14;76.45;101166.81;130073;1093;23171;-59
2020/12/22 00:40:31;;;;;;;31.63;14.07;;;;;;;-2.17;76.32;101167.11;130234;1092;23253;-58
2020/12/22 00:43:01;;;;;;;;;;;;;;;-2.20;76.35;101162.88;130148;1093;23154;-59
2020/12/22 00:45:27;;;;;;;20.60;10.37;;;;;;;-2.20;76.54;101159.37;130183;1093;21408;-59
2020/12/22 00:47:54;;;;;;;21.10;11.87;;;;;;;-2.21;76.48;101161.19;130072;1099;23325;-59
2020/12/22 00:50:22;;;;;;;23.27;12.30;;;;;;;-2.21;76.32;101158.52;130180;1093;23224;-60
2020/12/22 00:52:49;;;;;;;24.10;14.27;;;;;;;-2.21;76.42;101160.34;130091;1091;23297;-59
2020/12/22 00:55:17;;;;;;;24.50;12.87;;;;;;;-2.21;76.29;101163.02;130203;1093;23174;-59
2020/12/22 00:57:45;;;;;;;29.30;14.80;;;;;;;-2.23;76.48;101163.14;130059;1093;23314;-59
2020/12/22 01:00:13;;;;;;;28.27;14.33;;;;;;;-2.23;76.40;101155.14;130232;1098;23269;-59
2020/12/22 01:02:40;;;;;;;25.83;13.20;;;;;;;-2.26;76.27;101157.22;130104;1092;23873;-59
2020/12/22 01:05:10;;;;;;;29.83;15.63;;;;;;;-2.30;76.43;101158.47;130220;1093;23177;-59
2020/12/22 01:07:37;;;;;;;29.87;16.57;;;;;;;-2.30;76.66;101161.98;130171;1097;23228;-60
2020/12/22 01:10:04;;;;;;;;;;;;;;;-2.29;76.87;101163.67;130256;1090;23283;-59
2020/12/22 01:12:33;;;;;;;29.50;15.03;;;;;;;-2.30;76.57;101158.47;130252;1098;22445;-59
2020/12/22 01:15:01;;;;;;;27.90;14.65;;;;;;;-2.30;76.32;101155.80;130051;1090;23222;-59
2020/12/22 01:17:28;;;;;;;29.73;15.90;;;;;;;-2.31;76.42;101159.48;130282;1090;23895;-59
2020/12/22 01:19:55;;;;;;;30.80;16.73;;;;;;;-2.32;76.50;101157.78;130119;1097;23300;-59
2020/12/22 01:22:22;;;;;;;29.87;16.77;;;;;;;-2.30;76.47;101158.47;130212;1090;24190;-59
2020/12/22 01:24:49;;;;;;;;;;;;;;;-2.30;76.48;101156.64;130137;1097;23143;-60
2020/12/22 01:27:16;;;;;;;31.20;15.57;;;;;;;-2.30;76.40;101158.47;130247;1090;21378;-59
2020/12/22 01:29:43;;;;;;;;;;;;;;;-2.28;76.39;101153.84;130154;1090;23367;-59
2020/12/22 01:32:10;;;;;;;30.43;15.73;;;;;;;-2.27;76.36;101147.52;130249;1097;22078;-59
2020/12/22 01:34:37;;;;;;;35.90;18.33;;;;;;;-2.24;76.69;101147.27;130116;1090;23238;-60
2020/12/22 01:37:11;;;;;;;33.13;15.63;;;;;;;-2.22;76.54;101145.30;130300;1090;23295;-59
2020/12/22 01:39:38;;;;;;;29.30;16.40;;;;;;;-2.22;76.57;101145.30;130155;1090;23979;-59
2020/12/22 01:42:08;;;;;;;35.00;18.00;;;;;;;-2.20;76.65;101138.01;130229;1090;23179;-59
2020/12/22 01:44:35;;;;;;;31.57;15.53;;;;;;;-2.18;76.66;101136.89;130080;1093;23214;-59
2020/12/22 01:47:02;;;;;;;34.65;17.45;;;;;;;-2.14;76.43;101148.13;130231;1090;23217;-59
2020/12/22 01:49:31;;;;;;;29.93;15.33;;;;;;;-2.11;76.73;101145.19;130092;1090;23301;-60
2020/12/22 01:51:58;;;;;;;32.87;15.87;;;;;;;-2.11;76.43;101145.19;130246;1097;23214;-59
2020/12/22 01:54:26;;;;;;;32.73;16.43;;;;;;;-2.10;76.54;101144.21;130188;1090;23291;-59
2020/12/22 01:56:53;;;;;;;31.43;14.50;;;;;;;-2.10;76.12;101138.02;130229;1090;23184;-59
2020/12/22 01:59:20;;;;;;;24.43;12.93;;;;;;;-2.12;76.30;101138.16;130226;1093;23246;-59
2020/12/22 02:01:49;;;;;;;20.63;11.27;;;;;;;-2.12;76.62;101126.63;130090;1093;23165;-59
2020/12/22 02:04:17;;;;;;;21.10;12.27;;;;;;;-2.13;76.05;101131.13;130238;1098;24141;-59
2020/12/22 02:06:43;;;;;;;;;;;;;;;-2.15;76.30;101138.42;130114;1092;23429;-59
2020/12/22 02:09:11;;;;;;;23.27;11.10;;;;;;;-2.16;75.57;101131.39;130174;1098;21982;-60
2020/12/22 02:11:38;;;;;;;21.60;11.37;;;;;;;-2.18;75.82;101128.89;130063;1090;23161;-59
2020/12/22 02:15:14;;;;;;;15.63;8.47;;;;;;;-2.31;75.51;101098.09;125686;1093;27832;-58
2020/12/22 02:17:45;;;;;;;18.17;9.83;;;;;;;-2.17;75.64;101124.39;125612;1093;23386;-59
2020/12/22 02:20:13;;;;;;;15.55;9.65;;;;;;;-2.16;75.74;101120.72;130123;1099;24124;-59
2020/12/22 02:22:40;;;;;;;15.13;8.77;;;;;;;-2.14;75.83;101127.61;129938;1093;23797;-59
2020/12/22 02:25:16;;;;;;;14.50;9.37;;;;;;;-2.11;76.10;101123.83;130117;1093;24439;-59
2020/12/22 02:27:44;;;;;;;17.83;10.10;;;;;;;-2.07;75.68;101124.41;129784;1093;23212;-59
2020/12/22 02:30:11;;;;;;;18.80;10.60;;;;;;;-2.04;75.82;101126.81;129960;1092;23172;-59
2020/12/22 02:32:38;;;;;;;20.17;11.60;;;;;;;-2.02;75.45;101119.51;129848;1093;23232;-59
2020/12/22 02:35:06;;;;;;;19.50;10.07;;;;;;;-1.99;75.75;101120.05;129984;1093;23177;-59
2020/12/22 02:37:33;;;;;;;18.10;10.17;;;;;;;-1.97;75.63;101122.59;129801;1093;24177;-59
2020/12/22 02:40:01;;;;;;;17.87;9.73;;;;;;;-1.98;75.38;101129.75;129935;1100;23214;-59
2020/12/22 02:42:28;;;;;;;22.07;10.73;;;;;;;-2.00;75.08;101123.70;129817;1093;23164;-59
2020/12/22 02:44:56;;;;;;;17.47;10.17;;;;;;;-2.04;75.21;101124.14;129976;1100;24084;-59
2020/12/22 02:47:23;;;;;;;18.43;10.27;;;;;;;-2.01;74.95;101126.51;129777;1093;23248;-59
2020/12/22 02:49:51;;;;;;;18.23;10.33;;;;;;;-2.03;75.09;101128.50;129967;1093;23219;-59
2020/12/22 02:52:18;;;;;;;22.17;11.20;;;;;;;-2.03;75.01;101124.00;129822;1100;24462;-60
2020/12/22 02:54:57;;;;;;;19.47;9.90;;;;;;;-2.04;74.84;101126.81;129920;1093;23197;-59
2020/12/22 02:57:24;;;;;;;20.13;10.40;;;;;;;-2.05;75.01;101127.79;129816;1093;23324;-60
2020/12/22 02:59:52;;;;;;;29.77;11.97;;;;;;;-2.05;75.44;101123.30;129995;1093;24090;-59
2020/12/22 03:02:19;;;;;;;31.63;14.10;;;;;;;-2.08;75.50;101126.23;130055;1092;27912;-59
2020/12/22 03:04:46;;;;;;;26.40;12.50;;;;;;;-2.09;75.57;101124.54;130243;1093;24294;-59
2020/12/22 03:07:14;;;;;;;24.13;11.20;;;;;;;-2.07;75.13;101122.58;130134;1099;23160;-59
2020/12/22 03:09:41;;;;;;;22.10;12.03;;;;;;;-2.06;75.49;101113.59;130209;1093;25006;-59
2020/12/22 03:12:09;;;;;;;21.70;12.10;;;;;;;-2.07;75.35;101111.05;130262;1099;23220;-59
2020/12/22 03:14:37;;;;;;;24.87;12.10;;;;;;;-2.09;75.14;101110.34;130050;1093;24133;-60
2020/12/22 03:17:04;;;;;;;25.07;13.10;;;;;;;-2.09;75.22;101116.53;130219;1093;23281;-59
2020/12/22 03:19:31;;;;;;;24.83;12.70;;;;;;;-2.09;75.19;101105.84;130096;1093;23257;-60
2020/12/22 03:21:59;;;;;;;30.33;15.80;;;;;;;-2.11;75.42;101102.47;130211;1093;23152;-59
2020/12/22 03:24:26;;;;;;;29.53;13.57;;;;;;;-2.10;75.18;101096.14;130098;1093;23318;-59
2020/12/22 03:26:53;;;;;;;24.73;12.23;;;;;;;-2.13;75.09;101104.42;130251;1093;23155;-59
2020/12/22 03:29:21;;;;;;;22.20;12.23;;;;;;;-2.13;74.94;101104.42;130087;1093;23848;-59
2020/12/22 03:31:48;;;;;;;21.97;12.70;;;;;;;-2.14;75.22;101098.23;130233;1092;23244;-60
2020/12/22 03:34:16;;;;;;;23.17;12.97;;;;;;;-2.14;75.06;101100.91;130085;1093;23561;-59
2020/12/22 03:36:44;;;;;;;33.83;14.70;;;;;;;-2.15;75.19;101109.90;130239;1092;23290;-59
2020/12/22 03:39:13;;;;;;;29.00;15.10;;;;;;;-2.12;75.35;101103.45;130122;1093;23223;-59
2020/12/22 03:41:40;;;;;;;28.80;14.57;;;;;;;-2.13;75.35;101107.09;130219;1093;23162;-59
2020/12/22 03:44:08;;;;;;;22.67;12.83;;;;;;;-2.14;75.47;101113.41;130098;1093;23777;-59
2020/12/22 03:46:36;;;;;;;29.77;14.40;;;;;;;-2.14;75.56;101106.25;127710;1093;23325;-59
2020/12/22 03:49:07;;;;;;;24.70;13.77;;;;;;;-2.12;75.50;101115.95;130094;1093;23165;-59
2020/12/22 03:51:34;;;;;;;26.33;13.03;;;;;;;-2.13;75.32;101115.11;130221;1093;23275;-58
2020/12/22 03:54:02;;;;;;;27.87;15.07;;;;;;;-2.13;75.54;101107.09;130152;1093;23220;-60
2020/12/22 03:56:29;;;;;;;25.17;13.00;;;;;;;-2.12;75.95;101102.60;130185;1093;23163;-59
2020/12/22 03:58:56;;;;;;;23.40;12.17;;;;;;;-2.12;75.51;101094.59;130231;1093;23247;-59
2020/12/22 04:01:24;;;;;;;19.90;11.53;;;;;;;-2.10;75.24;101098.81;130113;1093;23175;-59
2020/12/22 04:03:51;;;;;;;18.97;10.70;;;;;;;-2.10;75.38;101100.64;130220;1093;23152;-60
2020/12/22 04:06:19;;;;;;;27.53;12.77;;;;;;;-2.11;75.52;101102.47;130078;1093;24174;-59
2020/12/22 04:08:50;;;;;;;23.53;12.83;;;;;;;-2.10;75.60;101097.97;130218;1093;24184;-59
2020/12/22 04:11:19;;;;;;;26.87;13.73;;;;;;;-2.09;75.45;101100.51;130129;1092;23261;-59
2020/12/22 04:13:47;;;;;;;26.30;14.47;;;;;;;-2.11;74.95;101097.13;130203;1093;23234;-60
2020/12/22 04:16:15;;;;;;;23.20;12.90;;;;;;;-2.12;75.31;101095.44;130133;1093;23153;-59
2020/12/22 04:18:43;;;;;;;19.17;11.23;;;;;;;-2.11;75.36;101097.13;130200;1092;23276;-59
2020/12/22 04:21:10;;;;;;;18.73;10.93;;;;;;;-2.11;75.22;101106.96;130079;1093;23215;-59
2020/12/22 04:23:38;;;;;;;20.20;11.43;;;;;;;-2.11;75.43;101112.30;130201;1098;23905;-59
2020/12/22 04:26:06;;;;;;;60.70;24.70;;;;;;;-2.09;75.43;101108.52;128452;1092;23318;-58
2020/12/22 04:28:34;;;;;;;159.40;58.97;;;;;;;-2.11;75.66;101105.14;130090;1093;23882;-59
2020/12/22 04:31:01;;;;;;;41.23;20.07;;;;;;;-2.11;75.42;101104.29;130081;1093;23249;-59
2020/12/22 04:33:28;;;;;;;41.10;22.53;;;;;;;-2.11;75.60;101102.47;130236;1093;24300;-59
2020/12/22 04:35:56;;;;;;;31.20;16.50;;;;;;;-2.09;75.46;101100.51;130076;1093;25696;-59
2020/12/22 04:38:23;;;;;;;18.13;9.67;;;;;;;-2.06;75.18;101092.23;130235;1093;23254;-59
2020/12/22 04:40:51;;;;;;;18.37;10.73;;;;;;;-2.04;75.15;101087.59;130112;1093;23149;-59
2020/12/22 04:43:19;;;;;;;25.93;14.53;;;;;;;-2.05;75.26;101096.59;129988;1093;24499;-60
2020/12/22 04:45:49;;;;;;;21.97;13.27;;;;;;;-2.05;75.48;101091.25;130127;1093;23809;-60
2020/12/22 04:48:18;;;;;;;23.37;12.37;;;;;;;-2.07;75.25;101087.02;129840;1099;23155;-59
2020/12/22 04:50:58;;;;;;;22.47;12.83;;;;;;;-2.08;75.36;101085.33;130222;1093;23123;-59
2020/12/22 04:53:26;;;;;;;17.17;9.70;;;;;;;-2.06;75.61;101084.22;130042;1093;23197;-59
2020/12/22 04:55:55;;;;;;;14.70;9.27;;;;;;;-2.02;75.36;101076.78;130036;1099;23271;-57
2020/12/22 04:58:23;;;;;;;14.60;8.17;;;;;;;-1.99;75.26;101079.15;130063;1093;23216;-58
2020/12/22 05:00:50;;;;;;;13.43;9.00;;;;;;;-1.98;75.18;101084.35;130015;1099;23171;-58
2020/12/22 05:03:18;;;;;;;18.57;10.30;;;;;;;-1.96;75.35;101079.72;130074;1092;23230;-58
2020/12/22 05:05:45;;;;;;;18.90;11.70;;;;;;;-1.95;75.03;101078.74;130230;1093;23172;-58
2020/12/22 05:08:13;;;;;;;17.63;9.60;;;;;;;-1.92;75.43;101081.14;130107;1093;23175;-58
2020/12/22 05:10:42;;;;;;;18.03;11.70;;;;;;;-1.90;75.71;101083.67;130219;1093;24746;-58
2020/12/22 05:13:10;;;;;;;20.07;12.60;;;;;;;-1.90;75.42;101086.34;130086;1092;23312;-58
2020/12/22 05:15:53;;;;;;;16.47;10.20;;;;;;;-1.90;75.31;101076.51;130206;1092;23225;-58
2020/12/22 05:18:24;;;;;;;21.47;10.90;;;;;;;-1.89;75.74;101080.87;130128;1093;23808;-57
2020/12/22 05:20:52;;;;;;;17.60;9.57;;;;;;;-1.88;76.01;101076.38;130263;1099;23603;-58
2020/12/22 05:23:20;;;;;;;16.07;8.53;;;;;;;-1.85;75.61;101074.23;130070;1093;23208;-58
2020/12/22 05:25:49;;;;;;;14.30;8.10;;;;;;;-1.82;75.50;101079.31;129078;1093;23412;-63
2020/12/22 05:28:18;;;;;;;13.20;8.97;;;;;;;-1.82;75.35;101076.64;130105;1093;23168;-64
2020/12/22 05:30:47;;;;;;;12.27;7.63;;;;;;;-1.86;75.27;101069.88;130204;1093;24138;-64
2020/12/22 05:33:15;;;;;;;10.20;6.40;;;;;;;-1.88;74.85;101073.70;129823;1093;23268;-64
2020/12/22 05:35:45;;;;;;;10.37;6.07;;;;;;;-1.89;75.43;101086.20;130179;1093;23226;-64
2020/12/22 05:38:18;;;;;;;14.37;8.60;;;;;;;-1.89;75.05;101075.52;130120;1093;23172;-65
2020/12/22 05:40:45;;;;;;;39.87;14.83;;;;;;;-1.88;75.04;101077.22;130277;1099;24103;-63
2020/12/22 05:43:13;;;;;;;48.57;17.53;;;;;;;-1.89;75.26;101078.20;130226;1093;23260;-64
2020/12/22 05:45:41;;;;;;;19.97;10.30;;;;;;;-1.91;74.99;101074.81;130161;1093;24174;-64
2020/12/22 05:48:13;;;;;;;37.80;18.37;;;;;;;-1.93;75.17;101071.44;130205;1098;23245;-64
2020/12/22 05:50:51;;;;;;;19.50;10.33;;;;;;;-1.99;75.30;101071.13;130068;1092;23272;-63
2020/12/22 05:53:26;;;;;;;19.37;10.37;;;;;;;-2.02;75.05;101074.92;130179;1099;23216;-64
2020/12/22 05:55:53;;;;;;;13.23;7.70;;;;;;;-2.03;75.14;101070.59;129838;1099;23168;-64
2020/12/22 05:58:22;;;;;;;14.30;7.77;;;;;;;-2.03;75.44;101073.27;130194;1093;23227;-64
2020/12/22 06:00:49;;;;;;;12.73;8.00;;;;;;;-2.03;75.20;101064.41;129884;1099;23254;-64
2020/12/22 06:03:17;;;;;;;12.17;7.10;;;;;;;-2.04;75.44;101065.39;130235;1099;23271;-63
2020/12/22 06:05:45;;;;;;;9.90;6.30;;;;;;;-2.04;75.57;101068.91;130032;1093;23204;-64
2020/12/22 06:08:14;;;;;;;14.53;8.07;;;;;;;-2.04;75.74;101063.56;130234;1093;23267;-63
2020/12/22 06:10:41;;;;;;;13.43;6.93;;;;;;;-2.01;75.56;101065.09;130067;1093;23184;-64
2020/12/22 06:13:09;;;;;;;10.90;6.73;;;;;;;-1.99;75.73;101068.47;130226;1099;23314;-63
2020/12/22 06:15:37;;;;;;;18.00;9.63;;;;;;;-1.98;75.46;101064.81;130079;1092;23227;-63
2020/12/22 06:18:05;;;;;;;19.63;9.73;;;;;;;-1.96;75.66;101053.02;130215;1093;23201;-63
2020/12/22 06:20:32;;;;;;;16.10;8.93;;;;;;;-1.93;76.00;101055.41;130109;1099;23215;-64
2020/12/22 06:23:01;;;;;;;17.77;8.20;;;;;;;-1.89;76.05;101053.31;130236;1093;23331;-63
2020/12/22 06:25:28;;;;;;;12.37;7.47;;;;;;;-1.88;75.84;101057.67;130065;1093;24082;-63
2020/12/22 06:27:56;;;;;;;17.90;10.77;;;;;;;-1.86;75.68;101051.18;130247;1093;23227;-64
2020/12/22 06:30:34;;;;;;;21.00;11.83;;;;;;;-1.82;76.00;101057.09;130134;1093;23235;-63
2020/12/22 06:33:31;;;;;;;20.00;8.97;;;;;;;-1.81;75.73;101048.94;130235;1099;23221;-64
2020/12/22 06:36:05;;;;;;;18.37;10.70;;;;;;;-1.79;75.89;101052.32;129869;1093;23245;-61
2020/12/22 06:38:51;;;;;;;15.77;8.83;;;;;;;-1.76;76.09;101056.55;130206;1093;23160;-61
2020/12/22 06:41:34;;;;;;;15.77;8.30;;;;;;;-1.73;76.16;101056.23;130084;1099;24181;-62
2020/12/22 06:44:25;;;;;;;15.13;8.73;;;;;;;-1.72;75.67;101052.58;130171;1093;23257;-61
2020/12/22 06:46:56;;;;;;;18.07;9.47;;;;;;;-1.71;75.68;101054.27;130071;1093;23316;-61
2020/12/22 06:49:46;;;;;;;17.20;8.97;;;;;;;-1.70;75.61;101042.60;130261;1099;23237;-61
2020/12/22 06:52:37;;;;;;;18.13;9.27;;;;;;;-1.67;75.68;101038.81;130037;1099;23278;-61
2020/12/22 06:55:08;;;;;;;18.93;9.40;;;;;;;-1.66;76.22;101033.33;130208;1092;23172;-61
2020/12/22 06:57:49;;;;;;;12.57;7.87;;;;;;;-1.63;75.99;101027.70;130038;1098;23889;-61
2020/12/22 07:00:26;;;;;;;14.17;8.67;;;;;;;-1.61;76.21;101036.42;130246;1093;23173;-61
2020/12/22 07:03:14;;;;;;;14.80;8.50;;;;;;;-1.58;75.81;101038.78;130061;1093;23161;-61
2020/12/22 07:05:47;;;;;;;14.60;8.80;;;;;;;-1.56;76.14;101030.63;129235;1093;23463;-61
2020/12/22 07:08:16;;;;;;;18.63;9.23;;;;;;;-1.56;75.73;101028.80;130107;1092;23231;-61
2020/12/22 07:10:45;;;;;;;12.93;8.63;;;;;;;-1.54;75.49;101024.16;130219;1093;23276;-60
2020/12/22 07:13:13;;;;;;;13.67;8.90;;;;;;;-1.52;75.54;101026.70;130130;1092;24353;-61
2020/12/22 07:15:53;;;;;;;28.83;17.47;;;;;;;-1.51;75.49;101029.23;130220;1093;23904;-61
2020/12/22 07:18:31;;;;;;;34.67;20.13;;;;;;;-1.53;75.65;101022.33;130101;1092;23299;-61
2020/12/22 07:20:58;;;;;;;31.15;17.87;;;;;;;-1.54;75.67;101018.81;130267;1099;23863;-61
2020/12/22 07:23:25;;;;;;;27.73;15.87;;;;;;;-1.54;75.87;101018.81;130027;1093;23160;-61
2020/12/22 07:25:53;;;;;;;29.20;13.87;;;;;;;-1.54;75.89;101009.95;130233;1093;23190;-61
2020/12/22 07:28:20;;;;;;;21.13;10.90;;;;;;;-1.52;76.38;101016.00;130111;1093;23149;-61
2020/12/22 07:30:47;;;;;;;14.73;8.10;;;;;;;-1.51;75.81;101010.52;130247;1093;23272;-62
2020/12/22 07:33:15;;;;;;;25.67;15.13;;;;;;;-1.48;76.23;101004.89;130065;1099;23229;-62
2020/12/22 07:35:44;;;;;;;34.13;17.00;;;;;;;-1.47;75.85;101001.23;129155;1093;23466;-61
2020/12/22 07:38:11;;;;;;;44.13;21.57;;;;;;;-1.46;76.25;101005.59;125802;1092;24964;-61
2020/12/22 07:40:42;;;;;;;33.55;17.80;;;;;;;-1.44;75.87;101000.92;125842;1098;23306;-61
2020/12/22 07:43:11;;;;;;;17.53;10.03;;;;;;;-1.42;76.00;100996.28;125820;1090;26788;-62
2020/12/22 07:45:51;;;;;;;15.87;8.73;;;;;;;-1.40;76.55;101000.64;130305;1090;23179;-63
2020/12/22 07:48:19;;;;;;;16.87;8.87;;;;;;;-1.40;76.44;100992.63;130121;1096;23166;-63
2020/12/22 07:50:53;;;;;;;38.23;15.77;;;;;;;-1.39;75.88;100996.98;130275;1090;23195;-63
2020/12/22 07:53:20;;;;;;;31.73;13.50;;;;;;;-1.42;76.11;100995.44;130228;1090;23255;-63
2020/12/22 07:55:48;;;;;;;31.23;13.87;;;;;;;-1.42;75.74;101001.62;130317;1090;23251;-62
2020/12/22 07:58:16;;;;;;;33.00;13.80;;;;;;;-1.41;76.75;100997.13;130336;1090;23289;-62
2020/12/22 08:00:44;;;;;;;26.03;12.57;;;;;;;-1.37;76.06;100998.53;130084;1093;23872;-63
2020/12/22 08:03:15;;;;;;;42.33;22.37;;;;;;;-1.33;76.62;100996.41;130223;1093;23301;-63
2020/12/22 08:06:03;;;;;;;39.60;21.07;;;;;;;-1.31;76.39;100989.09;129250;1090;26183;-69
2020/12/22 08:08:31;;;;;;;28.95;14.23;;;;;;;-1.29;75.85;100990.61;130358;1095;23207;-69
2020/12/22 08:10:59;;;;;;;46.77;23.23;;;;;;;-1.28;75.74;100989.63;130186;1090;23267;-69
2020/12/22 08:13:27;;;;;;;31.03;19.17;;;;;;;-1.29;75.86;100987.94;130245;1090;23355;-69
2020/12/22 08:15:57;;;;;;;28.73;17.20;;;;;;;-1.25;76.38;100997.36;130042;1093;24116;-68
2020/12/22 08:18:25;;;;;;;29.30;15.43;;;;;;;-1.25;75.98;100992.02;130211;1090;23225;-69
2020/12/22 08:20:55;;;;;;;21.87;12.13;;;;;;;-1.27;76.42;100985.97;130120;1090;23174;-69
2020/12/22 08:23:23;;;;;;;24.50;13.07;;;;;;;-1.28;75.88;100984.27;130272;1090;23879;-69
2020/12/22 08:25:51;;;;;;;20.40;10.87;;;;;;;-1.29;76.47;100974.56;130109;1090;25679;-69
2020/12/22 08:28:23;;;;;;;28.73;15.20;;;;;;;-1.26;76.67;100970.77;130234;1096;23215;-69
2020/12/22 08:30:51;;;;;;;27.17;14.50;;;;;;;-1.25;76.57;100962.60;130162;1090;23215;-69
2020/12/22 08:33:19;;;;;;;22.57;11.57;;;;;;;-1.24;76.22;100961.61;130201;1090;23153;-69
2020/12/22 08:35:48;;;;;;;21.87;10.00;;;;;;;-1.19;76.37;100966.53;129045;1090;24723;-68
2020/12/22 08:38:31;;;;;;;19.97;11.93;;;;;;;-1.16;77.00;100960.89;130241;1090;23357;-70
2020/12/22 08:41:12;;;;;;;19.50;10.00;;;;;;;-1.14;77.09;100964.23;130212;1096;23140;-71
2020/12/22 08:43:48;;;;;;;20.07;11.77;;;;;;;-1.12;75.99;100959.59;130273;1090;23209;-70
2020/12/22 08:46:16;;;;;;;20.77;11.15;;;;;;;-1.12;76.38;100959.59;130056;1090;23164;-71
2020/12/22 08:48:44;;;;;;;31.90;16.37;;;;;;;-1.08;76.71;100969.02;130263;1097;23314;-70
2020/12/22 08:51:26;;;;;;;30.43;15.20;;;;;;;-1.07;76.53;100963.52;130224;1090;23274;-70
2020/12/22 08:53:53;;;;;;;22.97;12.63;;;;;;;-1.02;76.93;100956.89;130419;1090;23291;-70
2020/12/22 08:56:21;;;;;;;27.67;17.30;;;;;;;-1.04;76.79;100949.02;130183;1097;23284;-70
2020/12/22 08:58:58;;;;;;;26.43;16.03;;;;;;;-1.00;76.57;100950.38;130343;1090;23162;-70
2020/12/22 09:01:42;;;;;;;19.37;12.25;;;;;;;-0.99;76.10;100946.72;130148;1097;23190;-69
2020/12/22 09:04:10;;;;;;;27.70;15.43;;;;;;;-0.97;76.80;100938.55;130353;1090;23825;-68
2020/12/22 09:06:47;;;;;;;32.93;17.33;;;;;;;-0.96;76.56;100938.40;130250;1090;23882;-68
2020/12/22 09:09:17;;;;;;;16.10;9.53;;;;;;;-0.96;76.36;100934.88;130400;1090;23182;-68
2020/12/22 09:11:45;;;;;;;18.07;10.93;;;;;;;-0.94;76.17;100938.25;130209;1090;23824;-68
2020/12/22 09:14:18;;;;;;;21.77;11.50;;;;;;;-0.93;76.17;100934.59;130392;1090;23192;-68
2020/12/22 09:16:52;;;;;;;16.97;10.87;;;;;;;-0.92;76.39;100936.28;130255;1090;24213;-68
2020/12/22 09:19:30;;;;;;;17.57;11.20;;;;;;;-0.91;76.39;100929.94;130366;1088;24241;-68
2020/12/22 09:22:01;;;;;;;19.93;11.00;;;;;;;-0.90;76.63;100923.59;130194;1090;23223;-68
2020/12/22 09:24:29;;;;;;;18.83;9.53;;;;;;;-0.97;76.67;100901.09;130260;1090;24545;-68
2020/12/22 09:27:06;;;;;;;17.27;10.90;;;;;;;-0.85;76.57;100918.62;130224;1090;23228;-68
2020/12/22 09:29:39;;;;;;;24.30;13.97;;;;;;;-0.87;76.56;100920.63;130346;1089;23824;-68
2020/12/22 09:32:08;;;;;;;22.90;13.83;;;;;;;-0.90;76.00;100915.57;130229;1090;23166;-68
2020/12/22 09:34:37;;;;;;;15.30;9.95;;;;;;;-0.95;76.78;100910.66;130433;1090;23161;-68
2020/12/22 09:37:06;;;;;;;20.27;10.87;;;;;;;-0.94;77.18;100906.16;130315;1095;23173;-68
2020/12/22 09:39:35;;;;;;;34.47;14.87;;;;;;;-0.95;76.53;100902.64;130169;1090;24900;-68
2020/12/22 09:42:03;;;;;;;23.17;13.07;;;;;;;-0.95;77.16;100904.47;130313;1090;24114;-68
2020/12/22 09:44:30;;;;;;;25.07;12.80;;;;;;;-0.95;77.03;100899.12;130202;1090;23146;-68
2020/12/22 09:46:58;;;;;;;18.07;10.93;;;;;;;-0.97;77.43;100896.59;130386;1090;23229;-68
2020/12/22 09:49:25;;;;;;;22.63;11.17;;;;;;;-0.97;77.44;100890.40;130353;1095;23879;-68
2020/12/22 09:51:53;;;;;;;17.00;10.43;;;;;;;-0.95;77.41;100894.61;130306;1090;23162;-68
2020/12/22 09:54:20;;;;;;;20.67;12.47;;;;;;;-0.95;76.99;100888.42;130243;1090;23272;-68
2020/12/22 09:56:48;;;;;;;22.27;12.90;;;;;;;-0.95;76.73;100886.59;130305;1095;23287;-68
2020/12/22 09:59:16;;;;;;;21.87;12.70;;;;;;;-0.92;77.56;100885.45;130173;1090;23299;-68
2020/12/22 10:01:44;;;;;;;23.43;13.87;;;;;;;-0.91;76.85;100877.27;130387;1096;23854;-69
2020/12/22 10:04:12;;;;;;;24.23;12.83;;;;;;;-0.92;77.51;100872.91;130144;1090;23905;-68
2020/12/22 10:06:39;;;;;;;21.57;11.57;;;;;;;-0.92;77.68;100870.23;130332;1090;23240;-69
2020/12/22 10:09:07;;;;;;;25.90;14.17;;;;;;;-0.88;76.85;100874.31;130231;1095;23146;-68
2020/12/22 10:11:35;;;;;;;34.80;16.43;;;;;;;-0.86;76.92;100860.75;130359;1090;23165;-68
2020/12/22 10:14:05;;;;;;;32.17;16.07;;;;;;;-0.86;77.82;100858.07;130190;1090;24737;-68
2020/12/22 10:16:33;;;;;;;23.80;12.87;;;;;;;-0.85;77.20;100854.41;127846;1089;25095;-70
2020/12/22 10:19:01;;;;;;;21.60;11.83;;;;;;;-0.83;76.83;100852.42;130140;1090;23306;-69
2020/12/22 10:21:28;;;;;;;20.60;11.97;;;;;;;-0.82;77.39;100852.28;130393;1095;23148;-68
2020/12/22 10:24:04;;;;;;;31.90;14.90;;;;;;;-0.82;77.79;100849.60;130378;1089;23284;-68
2020/12/22 10:26:32;;;;;;;29.10;15.33;;;;;;;-0.83;77.21;100836.38;130322;1090;23324;-68
2020/12/22 10:28:59;;;;;;;25.43;13.90;;;;;;;-0.83;77.22;100834.54;130400;1090;23192;-68
2020/12/22 10:31:27;;;;;;;25.67;13.20;;;;;;;-0.84;77.00;100832.86;130273;1089;23291;-68
2020/12/22 10:33:58;;;;;;;36.37;14.80;;;;;;;-0.80;77.83;100828.05;130273;1090;24091;-68
2020/12/22 10:36:26;;;;;;;22.13;11.47;;;;;;;-0.79;77.52;100825.22;130250;1090;23204;-69
2020/12/22 10:38:55;;;;;;;23.40;13.13;;;;;;;-0.80;77.87;100823.54;130257;1090;24662;-68
2020/12/22 10:41:22;;;;;;;26.80;14.77;;;;;;;-0.81;77.34;100821.86;130256;1095;23224;-68
2020/12/22 10:43:50;;;;;;;26.00;15.17;;;;;;;-0.82;77.94;100814.81;130336;1090;23169;-69
2020/12/22 10:46:17;;;;;;;27.60;12.83;;;;;;;-0.82;77.08;100817.50;128296;1090;25154;-70
2020/12/22 10:48:46;;;;;;;22.10;12.70;;;;;;;-0.81;77.92;100813.83;130375;1090;24073;-69
2020/12/22 10:51:15;;;;;;;27.07;13.87;;;;;;;-0.88;77.00;100798.55;130231;1090;24199;-68
2020/12/22 10:53:42;;;;;;;19.53;11.60;;;;;;;-0.74;77.85;100811.39;130359;1095;23230;-68
2020/12/22 10:56:11;;;;;;;25.17;13.10;;;;;;;-0.73;76.87;100802.38;130141;1090;23159;-68
2020/12/22 10:58:39;;;;;;;22.03;12.23;;;;;;;-0.72;77.33;100801.35;130283;1090;23170;-68
2020/12/22 11:01:15;;;;;;;24.70;13.23;;;;;;;-0.71;77.80;100800.36;130231;1097;23228;-69
2020/12/22 11:03:43;;;;;;;22.53;14.27;;;;;;;-0.71;76.93;100795.84;130251;1090;23187;-68
2020/12/22 11:08:46;;;;;;;25.00;13.20;;;;;;;-0.67;77.69;100795.55;130307;1090;24007;-68
2020/12/22 11:11:14;;;;;;;22.80;12.20;;;;;;;-0.65;76.86;100794.41;130260;1090;23195;-68
2020/12/22 11:13:41;;;;;;;21.50;11.77;;;;;;;-0.65;77.68;100794.41;130293;1090;23326;-68
2020/12/22 11:16:12;;;;;;;23.97;12.77;;;;;;;-0.67;77.64;100793.71;130221;1090;23342;-68
2020/12/22 11:18:40;;;;;;;23.83;13.63;;;;;;;-0.67;77.84;100793.71;130328;1090;23170;-68